sensor_id;sensor_type;location;lat;lon;timestamp;pressure;altitude;pressure_sealevel;temperature;humidity
35676;BME280;21790;42.668;23.298;2023-05-23T00:00:17;94576.81;;;19.18;52.90
35676;BME280;21790;42.668;23.298;2023-05-23T00:02:43;94576.03;;;19.17;52.72
35676;BME280;21790;42.668;23.298;2023-05-23T00:05:09;94578.06;;;19.17;52.49
35676;BME280;21790;42.668;23.298;2023-05-23T00:07:34;94571.53;;;19.09;52.46
35676;BME280;21790;42.668;23.298;2023-05-23T00:10:00;94574.88;;;19.02;52.69
35676;BME280;21790;42.668;23.298;2023-05-23T00:12:25;94567.53;;;18.93;52.25
35676;BME280;21790;42.668;23.298;2023-05-23T00:14:51;94575.97;;;18.88;52.13
35676;BME280;21790;42.668;23.298;2023-05-23T00:17:18;94570.81;;;19.03;52.00
35676;BME280;21790;42.668;23.298;2023-05-23T00:19:46;94570.38;;;19.23;51.27
35676;BME280;21790;42.668;23.298;2023-05-23T00:22:12;94567.84;;;18.90;52.39
35676;BME280;21790;42.668;23.298;2023-05-23T00:24:37;94574.47;;;18.87;52.51
35676;BME280;21790;42.668;23.298;2023-05-23T00:27:03;94566.88;;;18.82;52.64
35676;BME280;21790;42.668;23.298;2023-05-23T00:29:56;94565.44;;;19.05;52.22
35676;BME280;21790;42.668;23.298;2023-05-23T00:32:32;94556.63;;;18.90;52.28
35676;BME280;21790;42.668;23.298;2023-05-23T00:35:04;94563.50;;;19.24;50.95
35676;BME280;21790;42.668;23.298;2023-05-23T00:37:31;94560.88;;;19.02;51.50
35676;BME280;21790;42.668;23.298;2023-05-23T00:39:58;94573.97;;;18.83;52.03
35676;BME280;21790;42.668;23.298;2023-05-23T00:42:24;94577.56;;;18.77;51.85
35676;BME280;21790;42.668;23.298;2023-05-23T00:44:50;94567.72;;;18.71;52.06
35676;BME280;21790;42.668;23.298;2023-05-23T00:47:16;94576.56;;;18.80;52.26
35676;BME280;21790;42.668;23.298;2023-05-23T00:52:39;94561.47;;;18.89;51.96
35676;BME280;21790;42.668;23.298;2023-05-23T00:55:14;94560.13;;;19.01;51.80
35676;BME280;21790;42.668;23.298;2023-05-23T00:57:40;94556.31;;;18.52;52.51
35676;BME280;21790;42.668;23.298;2023-05-23T01:00:13;94564.16;;;18.70;52.09
35676;BME280;21790;42.668;23.298;2023-05-23T01:02:46;94557.00;;;18.75;52.12
35676;BME280;21790;42.668;23.298;2023-05-23T01:05:18;94564.84;;;18.76;52.27
35676;BME280;21790;42.668;23.298;2023-05-23T01:07:44;94561.28;;;18.82;51.84
35676;BME280;21790;42.668;23.298;2023-05-23T01:10:14;94570.75;;;18.67;52.25
35676;BME280;21790;42.668;23.298;2023-05-23T01:20:52;94576.91;;;18.60;51.75
35676;BME280;21790;42.668;23.298;2023-05-23T01:32:27;94571.41;;;18.38;52.71
35676;BME280;21790;42.668;23.298;2023-05-23T01:35:00;94569.84;;;18.48;52.50
35676;BME280;21790;42.668;23.298;2023-05-23T01:37:25;94571.09;;;18.47;52.12
35676;BME280;21790;42.668;23.298;2023-05-23T01:39:54;94574.63;;;18.53;52.20
35676;BME280;21790;42.668;23.298;2023-05-23T01:42:39;94570.31;;;18.58;51.65
35676;BME280;21790;42.668;23.298;2023-05-23T01:45:37;94563.81;;;18.79;51.00
35676;BME280;21790;42.668;23.298;2023-05-23T01:48:06;94568.66;;;18.79;50.61
35676;BME280;21790;42.668;23.298;2023-05-23T01:50:52;94559.81;;;18.69;50.62
35676;BME280;21790;42.668;23.298;2023-05-23T01:53:25;94555.34;;;18.38;51.46
35676;BME280;21790;42.668;23.298;2023-05-23T01:56:05;94557.13;;;18.47;51.41
35676;BME280;21790;42.668;23.298;2023-05-23T01:58:35;94555.09;;;18.42;51.46
35676;BME280;21790;42.668;23.298;2023-05-23T02:01:01;94552.63;;;18.27;51.83
35676;BME280;21790;42.668;23.298;2023-05-23T02:03:31;94549.09;;;18.21;52.10
35676;BME280;21790;42.668;23.298;2023-05-23T02:06:02;94555.66;;;18.29;51.88
35676;BME280;21790;42.668;23.298;2023-05-23T02:08:28;94551.59;;;18.30;51.45
35676;BME280;21790;42.668;23.298;2023-05-23T02:11:06;94557.31;;;18.60;50.73
35676;BME280;21790;42.668;23.298;2023-05-23T02:13:42;94558.31;;;18.63;50.49
35676;BME280;21790;42.668;23.298;2023-05-23T02:16:28;94559.38;;;18.60;50.46
35676;BME280;21790;42.668;23.298;2023-05-23T02:18:53;94562.22;;;18.43;50.55
35676;BME280;21790;42.668;23.298;2023-05-23T02:21:27;94561.22;;;18.40;50.89
35676;BME280;21790;42.668;23.298;2023-05-23T02:24:07;94558.91;;;18.39;50.95
35676;BME280;21790;42.668;23.298;2023-05-23T02:26:40;94551.88;;;18.27;51.07
35676;BME280;21790;42.668;23.298;2023-05-23T02:29:05;94556.19;;;18.22;51.36
35676;BME280;21790;42.668;23.298;2023-05-23T02:31:31;94556.22;;;18.17;51.80
35676;BME280;21790;42.668;23.298;2023-05-23T02:34:01;94554.47;;;18.14;52.27
35676;BME280;21790;42.668;23.298;2023-05-23T02:36:26;94562.69;;;17.84;52.88
35676;BME280;21790;42.668;23.298;2023-05-23T02:41:52;94553.97;;;18.15;52.79
35676;BME280;21790;42.668;23.298;2023-05-23T02:44:20;94547.97;;;18.47;52.04
35676;BME280;21790;42.668;23.298;2023-05-23T02:46:46;94545.00;;;18.28;52.38
35676;BME280;21790;42.668;23.298;2023-05-23T02:49:12;94550.00;;;18.46;52.08
35676;BME280;21790;42.668;23.298;2023-05-23T02:51:37;94544.72;;;18.37;52.40
35676;BME280;21790;42.668;23.298;2023-05-23T02:54:03;94543.75;;;18.18;52.98
35676;BME280;21790;42.668;23.298;2023-05-23T02:56:37;94545.78;;;18.17;53.30
35676;BME280;21790;42.668;23.298;2023-05-23T02:59:33;94548.38;;;18.15;53.62
35676;BME280;21790;42.668;23.298;2023-05-23T03:02:14;94548.63;;;18.06;53.86
35676;BME280;21790;42.668;23.298;2023-05-23T03:04:54;94558.81;;;18.09;54.13
35676;BME280;21790;42.668;23.298;2023-05-23T03:07:20;94548.38;;;18.10;54.24
35676;BME280;21790;42.668;23.298;2023-05-23T03:09:46;94549.91;;;18.11;54.08
35676;BME280;21790;42.668;23.298;2023-05-23T03:12:14;94551.38;;;18.23;54.13
35676;BME280;21790;42.668;23.298;2023-05-23T03:14:58;94549.34;;;18.23;54.04
35676;BME280;21790;42.668;23.298;2023-05-23T03:17:52;94546.59;;;18.07;54.94
35676;BME280;21790;42.668;23.298;2023-05-23T03:20:19;94548.94;;;17.91;55.39
35676;BME280;21790;42.668;23.298;2023-05-23T03:25:58;94545.91;;;17.89;55.38
35676;BME280;21790;42.668;23.298;2023-05-23T03:28:44;94559.28;;;18.13;54.93
35676;BME280;21790;42.668;23.298;2023-05-23T03:31:10;94565.41;;;18.12;58.55
35676;BME280;21790;42.668;23.298;2023-05-23T03:33:35;94560.84;;;18.66;55.98
35676;BME280;21790;42.668;23.298;2023-05-23T03:36:01;94560.16;;;18.96;53.81
35676;BME280;21790;42.668;23.298;2023-05-23T03:38:28;94566.00;;;18.98;52.86
35676;BME280;21790;42.668;23.298;2023-05-23T03:41:13;94571.13;;;18.88;53.41
35676;BME280;21790;42.668;23.298;2023-05-23T03:43:38;94577.56;;;18.77;53.47
35676;BME280;21790;42.668;23.298;2023-05-23T03:46:41;94575.44;;;18.95;53.31
35676;BME280;21790;42.668;23.298;2023-05-23T03:49:22;94572.47;;;18.82;53.49
35676;BME280;21790;42.668;23.298;2023-05-23T03:51:48;94579.72;;;18.55;53.99
35676;BME280;21790;42.668;23.298;2023-05-23T03:54:17;94579.72;;;18.55;54.67
35676;BME280;21790;42.668;23.298;2023-05-23T03:56:57;94575.91;;;18.52;54.60
35676;BME280;21790;42.668;23.298;2023-05-23T03:59:22;94583.81;;;18.48;54.81
35676;BME280;21790;42.668;23.298;2023-05-23T04:14:16;94577.78;;;18.27;55.69
35676;BME280;21790;42.668;23.298;2023-05-23T04:20:13;94579.69;;;18.60;55.15
35676;BME280;21790;42.668;23.298;2023-05-23T04:32:16;94579.91;;;18.73;54.92
35676;BME280;21790;42.668;23.298;2023-05-23T04:37:53;94577.34;;;18.75;54.34
35676;BME280;21790;42.668;23.298;2023-05-23T04:40:25;94587.47;;;18.84;54.18
35676;BME280;21790;42.668;23.298;2023-05-23T04:42:51;94579.13;;;18.73;54.48
35676;BME280;21790;42.668;23.298;2023-05-23T04:45:17;94587.25;;;18.76;54.51
35676;BME280;21790;42.668;23.298;2023-05-23T04:47:44;94593.03;;;18.90;54.30
35676;BME280;21790;42.668;23.298;2023-05-23T04:50:10;94588.69;;;18.89;54.16
35676;BME280;21790;42.668;23.298;2023-05-23T04:52:38;94597.41;;;18.79;54.21
35676;BME280;21790;42.668;23.298;2023-05-23T04:55:04;94593.50;;;18.94;54.15
35676;BME280;21790;42.668;23.298;2023-05-23T04:57:30;94607.50;;;18.94;54.10
35676;BME280;21790;42.668;23.298;2023-05-23T04:59:56;94603.44;;;18.95;54.36
35676;BME280;21790;42.668;23.298;2023-05-23T05:02:22;94600.09;;;19.02;54.28
35676;BME280;21790;42.668;23.298;2023-05-23T05:04:48;94596.75;;;19.09;53.62
35676;BME280;21790;42.668;23.298;2023-05-23T05:07:14;94599.63;;;18.98;54.01
35676;BME280;21790;42.668;23.298;2023-05-23T05:09:40;94602.47;;;18.87;54.40
35676;BME280;21790;42.668;23.298;2023-05-23T05:12:06;94605.56;;;18.77;54.55
35676;BME280;21790;42.668;23.298;2023-05-23T05:14:31;94607.91;;;18.68;54.63
35676;BME280;21790;42.668;23.298;2023-05-23T05:19:31;94617.38;;;18.59;54.83
35676;BME280;21790;42.668;23.298;2023-05-23T05:21:58;94611.53;;;18.52;55.17
35676;BME280;21790;42.668;23.298;2023-05-23T05:24:29;94607.69;;;18.60;55.00
35676;BME280;21790;42.668;23.298;2023-05-23T05:26:56;94613.28;;;18.60;55.15
35676;BME280;21790;42.668;23.298;2023-05-23T05:29:26;94583.22;;;18.66;57.13
35676;BME280;21790;42.668;23.298;2023-05-23T05:31:53;94610.09;;;18.92;54.54
35676;BME280;21790;42.668;23.298;2023-05-23T05:34:18;94609.97;;;19.08;54.17
35676;BME280;21790;42.668;23.298;2023-05-23T05:39:19;94589.41;;;19.00;53.74
35676;BME280;21790;42.668;23.298;2023-05-23T05:41:48;94591.69;;;19.02;53.79
35676;BME280;21790;42.668;23.298;2023-05-23T05:44:14;94587.03;;;19.10;53.42
35676;BME280;21790;42.668;23.298;2023-05-23T05:46:40;94617.47;;;19.30;53.58
35676;BME280;21790;42.668;23.298;2023-05-23T05:49:08;94616.63;;;19.41;53.26
35676;BME280;21790;42.668;23.298;2023-05-23T05:51:35;94613.34;;;19.31;53.69
35676;BME280;21790;42.668;23.298;2023-05-23T05:54:01;94615.38;;;19.36;53.85
35676;BME280;21790;42.668;23.298;2023-05-23T05:56:27;94619.69;;;19.37;53.89
35676;BME280;21790;42.668;23.298;2023-05-23T05:58:53;94621.47;;;19.40;53.69
35676;BME280;21790;42.668;23.298;2023-05-23T06:01:18;94618.25;;;19.60;53.28
35676;BME280;21790;42.668;23.298;2023-05-23T06:03:44;94621.81;;;19.61;53.30
35676;BME280;21790;42.668;23.298;2023-05-23T06:06:10;94612.34;;;19.64;52.89
35676;BME280;21790;42.668;23.298;2023-05-23T06:08:35;94618.47;;;19.68;53.25
35676;BME280;21790;42.668;23.298;2023-05-23T06:11:01;94618.16;;;19.72;53.13
35676;BME280;21790;42.668;23.298;2023-05-23T06:21:14;94617.19;;;19.93;52.75
35676;BME280;21790;42.668;23.298;2023-05-23T06:23:39;94619.94;;;19.99;52.83
35676;BME280;21790;42.668;23.298;2023-05-23T06:26:05;94614.38;;;19.93;53.30
35676;BME280;21790;42.668;23.298;2023-05-23T06:28:36;94625.09;;;19.95;53.05
35676;BME280;21790;42.668;23.298;2023-05-23T06:33:38;94630.34;;;20.28;52.61
35676;BME280;21790;42.668;23.298;2023-05-23T06:36:05;94601.72;;;20.35;52.13
35676;BME280;21790;42.668;23.298;2023-05-23T06:38:31;94612.34;;;20.18;52.66
35676;BME280;21790;42.668;23.298;2023-05-23T06:41:01;94626.56;;;20.01;52.81
35676;BME280;21790;42.668;23.298;2023-05-23T06:43:27;94625.13;;;19.59;53.84
35676;BME280;21790;42.668;23.298;2023-05-23T06:45:54;94618.69;;;19.70;53.96
35676;BME280;21790;42.668;23.298;2023-05-23T06:50:59;94616.97;;;20.16;53.24
35676;BME280;21790;42.668;23.298;2023-05-23T06:53:37;94605.59;;;20.32;52.52
35676;BME280;21790;42.668;23.298;2023-05-23T06:56:03;94588.25;;;20.53;52.45
35676;BME280;21790;42.668;23.298;2023-05-23T06:58:48;94610.66;;;20.77;52.19
35676;BME280;21790;42.668;23.298;2023-05-23T07:01:19;94612.59;;;21.01;52.13
35676;BME280;21790;42.668;23.298;2023-05-23T07:03:45;94604.03;;;21.31;51.49
35676;BME280;21790;42.668;23.298;2023-05-23T07:06:11;94611.94;;;21.64;50.87
35676;BME280;21790;42.668;23.298;2023-05-23T07:08:38;94578.19;;;21.64;49.40
35676;BME280;21790;42.668;23.298;2023-05-23T07:11:06;94607.16;;;22.04;49.55
35676;BME280;21790;42.668;23.298;2023-05-23T07:26:44;94565.72;;;23.04;47.06
35676;BME280;21790;42.668;23.298;2023-05-23T07:29:09;94570.97;;;23.21;46.97
35676;BME280;21790;42.668;23.298;2023-05-23T07:31:38;94573.50;;;23.45;47.07
35676;BME280;21790;42.668;23.298;2023-05-23T07:34:17;94570.00;;;23.73;46.72
35676;BME280;21790;42.668;23.298;2023-05-23T07:39:59;94550.03;;;23.92;45.68
35676;BME280;21790;42.668;23.298;2023-05-23T07:42:25;94547.81;;;23.98;45.48
35676;BME280;21790;42.668;23.298;2023-05-23T07:44:51;94542.78;;;24.04;45.68
35676;BME280;21790;42.668;23.298;2023-05-23T07:47:18;94539.56;;;24.00;44.86
35676;BME280;21790;42.668;23.298;2023-05-23T07:49:45;94543.56;;;24.12;44.46
35676;BME280;21790;42.668;23.298;2023-05-23T07:54:53;94545.03;;;24.34;44.46
35676;BME280;21790;42.668;23.298;2023-05-23T07:57:18;94529.81;;;24.37;44.66
35676;BME280;21790;42.668;23.298;2023-05-23T07:59:46;94555.22;;;24.65;44.07
35676;BME280;21790;42.668;23.298;2023-05-23T08:04:49;94553.03;;;24.86;44.25
35676;BME280;21790;42.668;23.298;2023-05-23T08:07:22;94554.03;;;25.04;44.31
35676;BME280;21790;42.668;23.298;2023-05-23T08:09:55;94556.53;;;25.08;44.21
35676;BME280;21790;42.668;23.298;2023-05-23T08:12:35;94551.59;;;25.00;43.67
35676;BME280;21790;42.668;23.298;2023-05-23T08:18:29;94555.38;;;25.03;43.42
35676;BME280;21790;42.668;23.298;2023-05-23T08:24:35;94548.22;;;25.02;43.60
35676;BME280;21790;42.668;23.298;2023-05-23T08:30:26;94556.06;;;25.47;44.12
35676;BME280;21790;42.668;23.298;2023-05-23T08:36:16;94550.41;;;25.70;43.49
35676;BME280;21790;42.668;23.298;2023-05-23T08:45:50;94551.34;;;25.65;41.82
35676;BME280;21790;42.668;23.298;2023-05-23T08:55:07;94526.06;;;25.97;40.94
35676;BME280;21790;42.668;23.298;2023-05-23T08:58:04;94545.50;;;26.08;40.29
35676;BME280;21790;42.668;23.298;2023-05-23T09:04:06;94534.94;;;26.09;39.93
35676;BME280;21790;42.668;23.298;2023-05-23T09:13:47;94548.16;;;25.99;37.01
35676;BME280;21790;42.668;23.298;2023-05-23T09:29:12;94518.53;;;26.00;34.27
35676;BME280;21790;42.668;23.298;2023-05-23T09:41:51;94515.16;;;25.78;34.69
35676;BME280;21790;42.668;23.298;2023-05-23T09:47:22;94511.53;;;25.93;34.67
35676;BME280;21790;42.668;23.298;2023-05-23T09:53:29;94507.59;;;25.81;33.56
35676;BME280;21790;42.668;23.298;2023-05-23T09:59:17;94497.41;;;25.63;33.06
35676;BME280;21790;42.668;23.298;2023-05-23T11:28:20;94422.91;;;26.38;30.33
35676;BME280;21790;42.668;23.298;2023-05-23T11:33:40;94446.63;;;25.88;29.43
35676;BME280;21790;42.668;23.298;2023-05-23T11:36:21;94455.69;;;25.94;29.38
35676;BME280;21790;42.668;23.298;2023-05-23T11:39:06;94434.09;;;26.21;28.91
35676;BME280;21790;42.668;23.298;2023-05-23T11:41:33;94440.50;;;26.21;29.36
35676;BME280;21790;42.668;23.298;2023-05-23T11:44:17;94426.56;;;26.23;29.25
35676;BME280;21790;42.668;23.298;2023-05-23T11:47:05;94428.06;;;26.09;29.57
35676;BME280;21790;42.668;23.298;2023-05-23T11:49:49;94419.81;;;25.96;30.19
35676;BME280;21790;42.668;23.298;2023-05-23T11:52:44;94425.34;;;25.71;29.69
35676;BME280;21790;42.668;23.298;2023-05-23T11:55:24;94422.31;;;25.47;29.52
35676;BME280;21790;42.668;23.298;2023-05-23T11:58:09;94424.56;;;25.78;29.59
35676;BME280;21790;42.668;23.298;2023-05-23T12:00:45;94423.22;;;25.87;29.32
35676;BME280;21790;42.668;23.298;2023-05-23T12:03:24;94420.94;;;25.93;29.16
35676;BME280;21790;42.668;23.298;2023-05-23T12:06:08;94423.41;;;25.89;29.22
35676;BME280;21790;42.668;23.298;2023-05-23T12:08:39;94421.69;;;26.01;29.61
35676;BME280;21790;42.668;23.298;2023-05-23T12:14:54;94407.09;;;26.28;29.99
35676;BME280;21790;42.668;23.298;2023-05-23T12:17:27;94393.25;;;26.39;29.87
35676;BME280;21790;42.668;23.298;2023-05-23T12:23:38;94396.25;;;26.41;28.48
35676;BME280;21790;42.668;23.298;2023-05-23T12:26:14;94382.28;;;26.36;28.88
35676;BME280;21790;42.668;23.298;2023-05-23T12:32:14;94389.66;;;25.83;29.96
35676;BME280;21790;42.668;23.298;2023-05-23T12:34:59;94381.28;;;26.01;29.90
35676;BME280;21790;42.668;23.298;2023-05-23T12:44:09;94371.78;;;26.13;28.77
35676;BME280;21790;42.668;23.298;2023-05-23T12:53:32;94371.44;;;26.09;28.58
35676;BME280;21790;42.668;23.298;2023-05-23T12:55:57;94374.59;;;25.73;28.41
35676;BME280;21790;42.668;23.298;2023-05-23T13:02:12;94355.00;;;26.15;28.27
35676;BME280;21790;42.668;23.298;2023-05-23T13:08:48;94354.28;;;26.47;27.65
35676;BME280;21790;42.668;23.298;2023-05-23T13:11:33;94353.66;;;26.24;26.67
35676;BME280;21790;42.668;23.298;2023-05-23T13:17:27;94353.94;;;26.43;27.43
35676;BME280;21790;42.668;23.298;2023-05-23T13:23:17;94341.63;;;26.48;27.15
35676;BME280;21790;42.668;23.298;2023-05-23T13:29:35;94340.88;;;26.48;26.71
35676;BME280;21790;42.668;23.298;2023-05-23T13:32:11;94334.28;;;25.98;27.55
35676;BME280;21790;42.668;23.298;2023-05-23T13:34:41;94347.16;;;25.91;27.07
35676;BME280;21790;42.668;23.298;2023-05-23T13:37:13;94349.25;;;26.38;27.15
35676;BME280;21790;42.668;23.298;2023-05-23T13:39:49;94347.25;;;26.23;27.47
35676;BME280;21790;42.668;23.298;2023-05-23T13:45:44;94358.41;;;26.54;27.90
35676;BME280;21790;42.668;23.298;2023-05-23T13:48:14;94351.88;;;26.44;27.24
35676;BME280;21790;42.668;23.298;2023-05-23T13:51:09;94358.06;;;26.50;26.81
35676;BME280;21790;42.668;23.298;2023-05-23T13:57:15;94352.53;;;26.59;26.75
35676;BME280;21790;42.668;23.298;2023-05-23T14:03:06;94350.84;;;26.56;26.52
35676;BME280;21790;42.668;23.298;2023-05-23T14:05:40;94350.53;;;26.45;26.96
35676;BME280;21790;42.668;23.298;2023-05-23T14:08:42;94349.47;;;26.65;26.57
35676;BME280;21790;42.668;23.298;2023-05-23T14:11:11;94350.84;;;26.56;27.04
35676;BME280;21790;42.668;23.298;2023-05-23T14:16:59;94342.47;;;26.66;26.82
35676;BME280;21790;42.668;23.298;2023-05-23T14:19:37;94345.75;;;26.80;26.52
35676;BME280;21790;42.668;23.298;2023-05-23T14:22:16;94341.19;;;26.84;26.57
35676;BME280;21790;42.668;23.298;2023-05-23T14:28:07;94344.31;;;26.71;27.38
35676;BME280;21790;42.668;23.298;2023-05-23T14:33:46;94338.44;;;26.77;26.77
35676;BME280;21790;42.668;23.298;2023-05-23T14:36:31;94343.91;;;26.75;26.32
35676;BME280;21790;42.668;23.298;2023-05-23T14:42:18;94343.38;;;26.69;26.78
35676;BME280;21790;42.668;23.298;2023-05-23T14:44:56;94343.88;;;26.82;27.73
35676;BME280;21790;42.668;23.298;2023-05-23T14:47:39;94335.94;;;26.81;29.67
35676;BME280;21790;42.668;23.298;2023-05-23T17:53:11;94356.44;;;26.32;34.00
35676;BME280;21790;42.668;23.298;2023-05-23T17:55:50;94364.59;;;26.28;33.58
35676;BME280;21790;42.668;23.298;2023-05-23T17:58:18;94366.50;;;26.17;34.21
35676;BME280;21790;42.668;23.298;2023-05-23T18:04:15;94373.31;;;26.14;34.17
35676;BME280;21790;42.668;23.298;2023-05-23T18:06:46;94376.75;;;26.05;33.58
35676;BME280;21790;42.668;23.298;2023-05-23T18:09:48;94384.69;;;26.07;33.67
35676;BME280;21790;42.668;23.298;2023-05-23T18:12:15;94386.22;;;25.93;34.29
35676;BME280;21790;42.668;23.298;2023-05-23T18:15:01;94394.16;;;25.87;34.38
35676;BME280;21790;42.668;23.298;2023-05-23T18:17:45;94390.09;;;25.57;34.50
35676;BME280;21790;42.668;23.298;2023-05-23T18:20:42;94392.31;;;25.66;35.03
35676;BME280;21790;42.668;23.298;2023-05-23T18:32:59;94412.50;;;24.94;35.83
35676;BME280;21790;42.668;23.298;2023-05-23T18:39:02;94424.56;;;25.10;35.82
35676;BME280;21790;42.668;23.298;2023-05-23T18:45:02;94427.38;;;25.10;36.30
35676;BME280;21790;42.668;23.298;2023-05-23T18:47:40;94428.16;;;25.03;36.84
35676;BME280;21790;42.668;23.298;2023-05-23T18:53:35;94433.59;;;25.01;37.05
35676;BME280;21790;42.668;23.298;2023-05-23T18:56:01;94443.56;;;24.87;37.62
35676;BME280;21790;42.668;23.298;2023-05-23T18:58:49;94444.72;;;24.99;37.38
35676;BME280;21790;42.668;23.298;2023-05-23T19:01:18;94449.56;;;24.83;37.36
35676;BME280;21790;42.668;23.298;2023-05-23T19:03:50;94454.47;;;24.83;37.75
35676;BME280;21790;42.668;23.298;2023-05-23T19:06:33;94459.94;;;24.81;37.61
35676;BME280;21790;42.668;23.298;2023-05-23T19:08:59;94459.31;;;24.59;37.85
35676;BME280;21790;42.668;23.298;2023-05-23T19:11:27;94464.03;;;24.65;38.11
35676;BME280;21790;42.668;23.298;2023-05-23T19:14:09;94477.75;;;24.60;37.93
35676;BME280;21790;42.668;23.298;2023-05-23T19:16:45;94481.34;;;24.61;37.53
35676;BME280;21790;42.668;23.298;2023-05-23T19:19:34;94489.41;;;24.57;37.57
35676;BME280;21790;42.668;23.298;2023-05-23T19:22:02;94492.03;;;24.47;37.57
35676;BME280;21790;42.668;23.298;2023-05-23T19:24:59;94495.19;;;24.44;37.79
35676;BME280;21790;42.668;23.298;2023-05-23T19:27:30;94502.50;;;24.32;38.70
35676;BME280;21790;42.668;23.298;2023-05-23T19:30:18;94504.66;;;24.18;39.46
35676;BME280;21790;42.668;23.298;2023-05-23T19:32:45;94505.84;;;23.94;39.93
35676;BME280;21790;42.668;23.298;2023-05-23T19:35:11;94505.84;;;23.94;40.44
35676;BME280;21790;42.668;23.298;2023-05-23T19:37:52;94509.75;;;23.91;40.54
35676;BME280;21790;42.668;23.298;2023-05-23T19:40:25;94504.94;;;23.78;40.32
35676;BME280;21790;42.668;23.298;2023-05-23T19:46:10;94507.50;;;23.69;41.08
35676;BME280;21790;42.668;23.298;2023-05-23T19:48:58;94511.00;;;23.83;39.78
35676;BME280;21790;42.668;23.298;2023-05-23T19:51:25;94511.84;;;23.70;39.58
35676;BME280;21790;42.668;23.298;2023-05-23T19:54:02;94521.69;;;23.76;39.40
35676;BME280;21790;42.668;23.298;2023-05-23T19:59:43;94514.81;;;23.64;39.66
35676;BME280;21790;42.668;23.298;2023-05-23T20:08:33;94515.47;;;23.50;39.80
35676;BME280;21790;42.668;23.298;2023-05-23T20:11:06;94515.78;;;23.46;39.46
35676;BME280;21790;42.668;23.298;2023-05-23T20:13:36;94510.63;;;23.37;40.57
35676;BME280;21790;42.668;23.298;2023-05-23T20:16:23;94515.63;;;23.31;40.70
35676;BME280;21790;42.668;23.298;2023-05-23T20:19:05;94509.94;;;23.23;40.48
35676;BME280;21790;42.668;23.298;2023-05-23T20:21:39;94519.81;;;23.17;39.95
35676;BME280;21790;42.668;23.298;2023-05-23T20:24:13;94513.91;;;23.07;40.68
35676;BME280;21790;42.668;23.298;2023-05-23T20:26:53;94518.78;;;23.07;41.21
35676;BME280;21790;42.668;23.298;2023-05-23T20:29:28;94519.88;;;23.04;41.99
35676;BME280;21790;42.668;23.298;2023-05-23T20:32:12;94515.34;;;23.01;41.95
35676;BME280;21790;42.668;23.298;2023-05-23T20:34:45;94509.97;;;22.89;42.26
35676;BME280;21790;42.668;23.298;2023-05-23T20:37:47;94524.59;;;22.88;42.43
35676;BME280;21790;42.668;23.298;2023-05-23T20:40:19;94513.44;;;22.82;43.25
35676;BME280;21790;42.668;23.298;2023-05-23T20:42:51;94521.94;;;22.69;43.16
35676;BME280;21790;42.668;23.298;2023-05-23T20:51:22;94518.31;;;22.35;44.03
35676;BME280;21790;42.668;23.298;2023-05-23T20:54:05;94519.34;;;22.58;42.85
35676;BME280;21790;42.668;23.298;2023-05-23T21:02:28;94519.38;;;22.32;43.73
35676;BME280;21790;42.668;23.298;2023-05-23T21:07:47;94514.25;;;22.57;42.00
35676;BME280;21790;42.668;23.298;2023-05-23T21:10:22;94514.19;;;22.36;43.49
35676;BME280;21790;42.668;23.298;2023-05-23T21:12:56;94522.31;;;22.26;42.95
35676;BME280;21790;42.668;23.298;2023-05-23T21:28:37;94531.53;;;22.00;42.90
35676;BME280;21790;42.668;23.298;2023-05-23T21:41:18;94547.53;;;22.05;44.11
35676;BME280;21790;42.668;23.298;2023-05-23T21:44:08;94546.88;;;21.99;44.23
35676;BME280;21790;42.668;23.298;2023-05-23T21:46:34;94545.94;;;21.97;43.62
35676;BME280;21790;42.668;23.298;2023-05-23T21:52:18;94558.31;;;21.75;43.39
35676;BME280;21790;42.668;23.298;2023-05-23T21:54:47;94554.41;;;21.65;43.21
35676;BME280;21790;42.668;23.298;2023-05-23T22:00:20;94557.03;;;21.89;43.04
35676;BME280;21790;42.668;23.298;2023-05-23T22:05:49;94555.06;;;21.84;43.34
35676;BME280;21790;42.668;23.298;2023-05-23T22:14:34;94558.88;;;21.42;43.88
35676;BME280;21790;42.668;23.298;2023-05-23T22:35:33;94550.53;;;21.36;44.27
35676;BME280;21790;42.668;23.298;2023-05-23T22:38:14;94547.53;;;21.47;44.18
35676;BME280;21790;42.668;23.298;2023-05-23T22:43:47;94547.19;;;21.38;44.95
35676;BME280;21790;42.668;23.298;2023-05-23T22:49:24;94558.94;;;21.04;45.31
